createdAt,value
2018-02-20T00:02:15.209Z,13.13
2018-02-20T00:04:41.684Z,16.25
2018-02-20T00:07:08.785Z,13.60
2018-02-20T00:09:35.134Z,11.52
2018-02-20T00:12:01.511Z,18.77
2018-02-20T00:14:27.879Z,15.50
2018-02-20T00:16:54.289Z,11.60
2018-02-20T00:19:20.657Z,11.10
2018-02-20T00:21:47.053Z,14.60
2018-02-20T00:24:13.429Z,13.85
2018-02-20T00:26:39.809Z,11.50
2018-02-20T00:29:06.162Z,11.12
2018-02-20T00:31:32.518Z,14.18
2018-02-20T00:33:58.921Z,14.00
2018-02-20T00:36:25.290Z,10.93
2018-02-20T00:38:51.665Z,17.87
2018-02-20T00:41:18.761Z,26.37
2018-02-20T00:43:45.126Z,18.27
2018-02-20T00:46:12.241Z,9.45
2018-02-20T00:48:39.483Z,10.82
2018-02-20T00:51:05.862Z,16.42
2018-02-20T00:53:33.011Z,13.90
2018-02-20T00:56:00.126Z,10.63
2018-02-20T00:58:26.533Z,11.52
2018-02-20T01:00:54.431Z,20.95
2018-02-20T01:03:20.815Z,14.25
2018-02-20T01:05:47.990Z,28.27
2018-02-20T01:08:14.382Z,9.43
2018-02-20T01:10:40.984Z,14.68
2018-02-20T01:13:07.362Z,15.43
2018-02-20T01:15:34.454Z,9.32
2018-02-20T01:18:00.841Z,18.85
2018-02-20T01:20:27.950Z,14.68
2018-02-20T01:22:54.359Z,14.43
2018-02-20T01:25:20.733Z,15.57
2018-02-20T01:27:47.863Z,13.52
2018-02-20T01:30:14.266Z,12.02
2018-02-20T01:32:40.666Z,14.05
2018-02-20T01:35:07.826Z,15.25
2018-02-20T01:37:35.975Z,14.75
2018-02-20T01:40:02.409Z,13.88
2018-02-20T01:42:28.799Z,16.17
2018-02-20T01:44:55.198Z,13.98
2018-02-20T01:47:22.350Z,10.00
2018-02-20T01:49:49.441Z,14.95
2018-02-20T01:52:15.807Z,11.45
2018-02-20T01:54:42.177Z,26.92
2018-02-20T01:57:08.547Z,12.45
2018-02-20T01:59:34.922Z,10.18
2018-02-20T02:02:01.290Z,10.05
2018-02-20T02:04:27.687Z,10.73
2018-02-20T02:06:54.183Z,13.05
2018-02-20T02:09:20.683Z,11.12
2018-02-20T02:11:47.176Z,18.90
2018-02-20T02:14:14.395Z,12.10
2018-02-20T02:16:40.851Z,23.35
2018-02-20T02:19:07.459Z,11.52
2018-02-20T02:21:34.115Z,31.87
2018-02-20T02:24:00.683Z,29.80
2018-02-20T02:26:27.291Z,11.75
2018-02-20T02:28:54.595Z,11.68
2018-02-20T02:31:21.289Z,14.23
2018-02-20T02:33:48.663Z,23.02
2018-02-20T02:36:16.075Z,25.12
2018-02-20T02:38:42.607Z,16.02
2018-02-20T02:41:09.274Z,22.20
2018-02-20T02:43:39.816Z,11.27
2018-02-20T02:46:07.089Z,11.00
2018-02-20T02:48:33.764Z,19.17
2018-02-20T02:51:00.333Z,11.95
2018-02-20T02:53:26.884Z,19.23
2018-02-20T02:55:54.225Z,15.00
2018-02-20T02:58:21.532Z,17.05
2018-02-20T03:00:48.099Z,12.98
2018-02-20T03:03:15.473Z,14.75
2018-02-20T03:05:42.041Z,14.55
2018-02-20T03:08:08.724Z,20.10
2018-02-20T03:10:35.479Z,12.00
2018-02-20T03:13:02.811Z,12.18
2018-02-20T03:15:29.407Z,21.67
2018-02-20T03:17:55.995Z,9.23
2018-02-20T03:20:22.666Z,11.70
2018-02-20T03:22:49.255Z,17.92
2018-02-20T03:25:15.831Z,9.43
2018-02-20T03:27:43.141Z,11.38
2018-02-20T03:30:09.808Z,18.87
2018-02-20T03:32:36.371Z,13.02
2018-02-20T03:35:02.935Z,10.43
2018-02-20T03:37:29.499Z,15.07
2018-02-20T03:39:56.152Z,14.18
2018-02-20T03:42:22.692Z,18.95
2018-02-20T03:44:49.283Z,16.10
2018-02-20T03:47:15.898Z,25.60
2018-02-20T03:49:43.254Z,10.23
2018-02-20T03:52:10.669Z,12.18
2018-02-20T03:54:39.268Z,16.42
2018-02-20T03:57:05.935Z,15.32
2018-02-20T03:59:33.267Z,11.70
2018-02-20T04:01:59.927Z,13.50
2018-02-20T04:04:26.631Z,11.43
2018-02-20T04:06:53.182Z,13.23
2018-02-20T04:09:19.779Z,18.15
2018-02-20T04:11:46.364Z,19.10
2018-02-20T04:14:12.952Z,9.82
2018-02-20T04:16:39.480Z,13.68
2018-02-20T04:19:06.289Z,13.20
2018-02-20T04:21:33.969Z,10.18
2018-02-20T04:24:01.314Z,15.45
2018-02-20T04:26:28.653Z,10.80
2018-02-20T04:28:55.325Z,22.30
2018-02-20T04:31:22.675Z,10.50
2018-02-20T04:33:50.122Z,20.35
2018-02-20T04:36:16.702Z,21.45
2018-02-20T04:38:43.299Z,10.05
2018-02-20T04:41:10.621Z,8.57
2018-02-20T04:43:37.204Z,9.48
2018-02-20T04:46:04.550Z,13.30
2018-02-20T04:48:31.875Z,12.32
2018-02-20T04:50:58.503Z,12.68
2018-02-20T04:53:25.074Z,24.02
2018-02-20T04:55:52.307Z,18.40
2018-02-20T04:58:18.857Z,15.20
2018-02-20T05:00:45.472Z,19.85
2018-02-20T05:03:12.042Z,14.98
2018-02-20T05:05:39.402Z,30.17
2018-02-20T05:08:06.750Z,19.25
2018-02-20T05:10:33.332Z,13.85
2018-02-20T05:12:59.881Z,11.98
2018-02-20T05:15:26.561Z,9.00
2018-02-20T05:17:53.144Z,15.45
2018-02-20T05:20:19.845Z,11.00
2018-02-20T05:22:47.308Z,19.60
2018-02-20T05:25:14.656Z,20.37
2018-02-20T05:27:42.014Z,13.98
2018-02-20T05:30:09.491Z,16.20
2018-02-20T05:32:36.803Z,19.00
2018-02-20T05:35:03.342Z,18.35
2018-02-20T05:37:29.985Z,14.65
2018-02-20T05:39:56.513Z,16.30
2018-02-20T05:42:23.086Z,11.02
2018-02-20T05:44:50.337Z,13.27
2018-02-20T05:47:17.749Z,11.50
2018-02-20T05:49:44.304Z,9.65
2018-02-20T05:52:10.923Z,11.52
2018-02-20T05:54:37.484Z,8.10
2018-02-20T05:57:04.219Z,12.02
2018-02-20T05:59:30.776Z,14.15
2018-02-20T06:01:57.417Z,23.48
2018-02-20T06:04:24.699Z,12.45
2018-02-20T06:06:51.267Z,14.07
2018-02-20T06:09:17.843Z,14.27
2018-02-20T06:11:44.445Z,12.25
2018-02-20T06:14:10.998Z,12.25
2018-02-20T06:16:37.571Z,8.45
2018-02-20T06:19:25.862Z,36.03
2018-02-20T06:21:52.547Z,19.42
2018-02-20T06:24:19.112Z,10.07
2018-02-20T06:26:45.711Z,16.75
2018-02-20T06:29:12.331Z,12.35
2018-02-20T06:31:38.897Z,29.02
2018-02-20T06:34:05.440Z,12.37
2018-02-20T06:36:33.080Z,12.10
2018-02-20T06:38:59.736Z,18.70
2018-02-20T06:41:26.259Z,8.82
2018-02-20T06:43:52.971Z,17.30
2018-02-20T06:46:23.606Z,9.88
2018-02-20T06:48:50.163Z,17.60
2018-02-20T06:51:16.723Z,9.50
2018-02-20T06:53:44.075Z,8.02
2018-02-20T06:56:10.654Z,9.10
2018-02-20T06:58:37.307Z,19.40
2018-02-20T07:01:03.912Z,15.30
2018-02-20T07:03:30.474Z,14.95
2018-02-20T07:05:57.039Z,14.32
2018-02-20T07:08:23.601Z,12.27
2018-02-20T07:10:50.136Z,12.35
2018-02-20T07:13:17.600Z,16.35
2018-02-20T07:15:44.215Z,18.87
2018-02-20T07:18:10.761Z,14.10
2018-02-20T07:20:38.076Z,11.45
2018-02-20T07:23:04.657Z,18.77
2018-02-20T07:25:31.200Z,11.32
2018-02-20T07:27:58.495Z,17.95
2018-02-20T07:30:25.066Z,11.95
2018-02-20T07:32:51.618Z,12.95
2018-02-20T07:35:18.223Z,15.25
2018-02-20T07:37:44.840Z,15.68
2018-02-20T07:40:11.441Z,10.00
2018-02-20T07:42:38.024Z,12.63
2018-02-20T07:45:05.636Z,18.17
2018-02-20T07:47:32.279Z,13.98
2018-02-20T07:49:58.920Z,18.92
2018-02-20T07:52:25.519Z,23.23
2018-02-20T07:54:52.102Z,17.75
2018-02-20T07:57:19.372Z,17.67
2018-02-20T07:59:46.770Z,21.40
2018-02-20T08:02:13.436Z,24.90
2018-02-20T08:04:40.870Z,14.87
2018-02-20T08:07:07.440Z,17.52
2018-02-20T08:09:34.017Z,13.43
2018-02-20T08:12:00.593Z,11.18
2018-02-20T08:14:27.170Z,17.45
2018-02-20T08:16:54.463Z,14.60
2018-02-20T08:19:21.145Z,21.35
2018-02-20T08:21:47.812Z,16.52
2018-02-20T08:24:14.373Z,18.98
2018-02-20T08:26:40.971Z,21.08
2018-02-20T08:29:08.331Z,15.40
2018-02-20T08:31:36.086Z,16.10
2018-02-20T08:34:02.745Z,25.83
2018-02-20T08:36:29.519Z,16.27
2018-02-20T08:38:56.160Z,26.48
2018-02-20T08:41:22.699Z,26.12
2018-02-20T08:43:49.376Z,24.70
2018-02-20T08:46:15.950Z,19.85
2018-02-20T08:48:42.503Z,17.17
2018-02-20T08:51:09.139Z,14.77
2018-02-20T08:53:35.698Z,18.93
2018-02-20T08:56:02.336Z,18.30
2018-02-20T08:58:28.969Z,28.10
2018-02-20T09:00:55.650Z,18.90
2018-02-20T09:03:22.982Z,19.55
2018-02-20T09:05:49.537Z,20.58
2018-02-20T09:08:16.802Z,15.25
2018-02-20T09:10:44.078Z,22.07
2018-02-20T09:13:10.910Z,25.73
2018-02-20T09:15:37.493Z,27.60
2018-02-20T09:18:04.143Z,19.95
2018-02-20T09:20:30.801Z,21.62
2018-02-20T09:22:58.831Z,24.80
2018-02-20T09:25:25.489Z,28.02
2018-02-20T09:27:52.106Z,31.55
2018-02-20T09:30:18.659Z,20.33
2018-02-20T09:32:45.190Z,34.28
2018-02-20T09:35:11.762Z,18.65
2018-02-20T09:37:38.398Z,22.10
2018-02-20T09:40:04.932Z,22.85
2018-02-20T09:42:31.511Z,23.50
2018-02-20T09:44:58.172Z,15.03
2018-02-20T09:47:24.752Z,17.85
2018-02-20T09:49:51.462Z,16.37
2018-02-20T09:52:18.029Z,21.30
2018-02-20T09:54:44.632Z,21.43
2018-02-20T09:57:11.218Z,21.53
2018-02-20T09:59:38.523Z,20.20
2018-02-20T10:02:05.159Z,22.00
2018-02-20T10:04:31.745Z,28.70
2018-02-20T10:06:59.026Z,26.33
2018-02-20T10:09:25.636Z,32.43
2018-02-20T10:11:52.248Z,24.33
2018-02-20T10:14:20.272Z,22.23
2018-02-20T10:16:46.818Z,21.83
2018-02-20T10:19:13.406Z,21.70
2018-02-20T10:21:39.956Z,20.77
2018-02-20T10:24:07.280Z,19.67
2018-02-20T10:26:33.941Z,19.63
2018-02-20T10:29:01.218Z,24.07
2018-02-20T10:31:27.777Z,19.60
2018-02-20T10:33:54.346Z,26.57
2018-02-20T10:36:20.892Z,26.53
2018-02-20T10:38:47.454Z,23.33
2018-02-20T10:41:14.798Z,23.47
2018-02-20T10:43:41.339Z,27.77
2018-02-20T10:46:07.911Z,19.63
2018-02-20T10:48:34.504Z,31.53
2018-02-20T10:51:01.114Z,20.17
2018-02-20T10:53:27.667Z,26.80
2018-02-20T10:55:54.254Z,25.30
2018-02-20T10:58:20.802Z,31.73
2018-02-20T11:00:47.355Z,20.57
2018-02-20T11:03:14.036Z,42.50
2018-02-20T11:05:40.595Z,25.83
2018-02-20T11:08:07.874Z,27.93
2018-02-20T11:10:34.450Z,26.27
2018-02-20T11:13:03.048Z,19.00
2018-02-20T11:15:29.851Z,32.50
2018-02-20T11:18:00.384Z,25.30
2018-02-20T11:20:27.043Z,26.03
2018-02-20T11:22:53.600Z,27.70
2018-02-20T11:25:20.203Z,18.63
2018-02-20T11:27:46.844Z,25.47
2018-02-20T11:30:13.404Z,32.13
2018-02-20T11:32:40.011Z,25.67
2018-02-20T11:35:06.548Z,23.90
2018-02-20T11:37:33.204Z,25.67
2018-02-20T11:39:59.796Z,21.10
2018-02-20T11:42:26.332Z,26.30
2018-02-20T11:44:53.611Z,27.00
2018-02-20T11:47:23.266Z,25.67
2018-02-20T11:49:49.831Z,19.13
2018-02-20T11:52:17.463Z,18.73
2018-02-20T11:54:44.303Z,24.97
2018-02-20T11:57:11.615Z,26.67
2018-02-20T11:59:38.147Z,28.27
2018-02-20T12:02:04.721Z,20.73
2018-02-20T12:04:32.038Z,21.67
2018-02-20T12:06:59.029Z,23.17
2018-02-20T12:09:25.550Z,18.87
2018-02-20T12:11:52.103Z,19.83
2018-02-20T12:14:19.459Z,22.77
2018-02-20T12:16:46.166Z,26.40
2018-02-20T12:19:12.623Z,21.13
2018-02-20T12:21:39.060Z,17.47
2018-02-20T12:24:05.494Z,16.30
2018-02-20T12:26:31.919Z,20.07
2018-02-20T12:28:58.396Z,26.07
2018-02-20T12:31:25.685Z,23.40
2018-02-20T12:33:52.200Z,25.10
2018-02-20T12:36:19.693Z,19.47
2018-02-20T12:38:46.218Z,19.60
2018-02-20T12:41:12.691Z,15.80
2018-02-20T12:43:39.170Z,19.60
2018-02-20T12:46:06.356Z,19.70
2018-02-20T12:48:32.785Z,15.77
2018-02-20T12:50:59.224Z,19.47
2018-02-20T12:53:25.682Z,18.93
2018-02-20T12:55:52.133Z,25.70
2018-02-20T12:58:18.583Z,27.80
2018-02-20T13:00:44.997Z,19.50
2018-02-20T13:03:11.430Z,23.90
2018-02-20T13:05:38.637Z,22.47
2018-02-20T13:08:05.068Z,33.17
2018-02-20T13:10:31.479Z,28.67
2018-02-20T13:12:57.953Z,22.00
2018-02-20T13:15:24.422Z,26.07
2018-02-20T13:17:50.840Z,20.67
2018-02-20T13:20:17.287Z,18.63
2018-02-20T13:22:43.688Z,17.30
2018-02-20T13:25:10.120Z,30.37
2018-02-20T13:27:36.575Z,17.30
2018-02-20T13:30:03.319Z,31.60
2018-02-20T13:32:29.757Z,21.73
2018-02-20T13:34:56.210Z,21.30
2018-02-20T13:37:22.625Z,25.17
2018-02-20T13:39:49.077Z,28.53
2018-02-20T13:42:15.528Z,16.60
2018-02-20T13:44:42.704Z,24.03
2018-02-20T13:47:09.117Z,26.80
2018-02-20T13:49:36.314Z,22.67
2018-02-20T13:52:02.740Z,25.90
2018-02-20T13:54:29.261Z,35.07
2018-02-20T13:56:55.836Z,33.73
2018-02-20T13:59:22.265Z,31.30
2018-02-20T14:01:48.717Z,29.73
2018-02-20T14:04:16.645Z,18.47
2018-02-20T14:06:43.085Z,24.13
2018-02-20T14:09:09.648Z,38.88
2018-02-20T14:11:36.845Z,29.40
2018-02-20T14:14:03.296Z,34.13
2018-02-20T14:16:29.719Z,29.53
2018-02-20T14:18:56.176Z,35.20
2018-02-20T14:21:22.620Z,34.55
2018-02-20T14:23:49.088Z,30.40
2018-02-20T14:26:15.607Z,35.43
2018-02-20T14:28:42.096Z,28.67
2018-02-20T14:31:08.513Z,28.40
2018-02-20T14:33:35.693Z,35.90
2018-02-20T14:36:02.117Z,18.47
2018-02-20T14:38:28.516Z,31.37
2018-02-20T14:40:55.085Z,30.33
2018-02-20T14:43:21.529Z,30.23
2018-02-20T14:45:47.944Z,26.20
2018-02-20T14:48:15.256Z,26.80
2018-02-20T14:50:41.665Z,32.30
2018-02-20T14:53:08.109Z,23.73
2018-02-20T14:55:34.558Z,26.45
2018-02-20T14:58:01.014Z,28.77
2018-02-20T15:00:28.244Z,33.50
2018-02-20T15:02:54.696Z,27.98
2018-02-20T15:05:21.134Z,38.33
2018-02-20T15:07:47.582Z,45.30
2018-02-20T15:10:14.187Z,34.65
2018-02-20T15:12:42.110Z,35.43
2018-02-20T15:15:08.548Z,37.73
2018-02-20T15:17:35.235Z,38.57
2018-02-20T15:20:01.762Z,30.30
2018-02-20T15:22:28.223Z,36.35
2018-02-20T15:24:54.694Z,32.65
2018-02-20T15:27:21.128Z,32.00
2018-02-20T15:29:47.585Z,28.90
2018-02-20T15:32:14.192Z,28.98
2018-02-20T15:34:41.362Z,33.40
2018-02-20T15:37:07.808Z,28.95
2018-02-20T15:39:34.322Z,23.70
2018-02-20T15:42:08.619Z,31.48
2018-02-20T15:44:35.062Z,31.05
2018-02-20T15:47:01.509Z,27.97
2018-02-20T15:49:31.877Z,36.10
2018-02-20T15:51:58.356Z,38.45
2018-02-20T15:54:24.806Z,32.08
2018-02-20T15:56:51.241Z,33.20
2018-02-20T15:59:17.731Z,28.43
2018-02-20T16:01:45.641Z,32.97
2018-02-20T16:04:12.097Z,26.50
2018-02-20T16:06:38.554Z,25.87
2018-02-20T16:09:05.756Z,22.37
2018-02-20T16:11:32.184Z,32.77
2018-02-20T16:14:02.258Z,22.90
2018-02-20T16:16:28.708Z,27.47
2018-02-20T16:18:55.154Z,34.13
2018-02-20T16:21:22.358Z,47.28
2018-02-20T16:23:49.045Z,30.77
2018-02-20T16:26:15.454Z,31.30
2018-02-20T16:28:41.906Z,38.40
2018-02-20T16:31:08.365Z,25.27
2018-02-20T16:33:35.536Z,36.53
2018-02-20T16:36:02.118Z,31.35
2018-02-20T16:38:28.564Z,21.23
2018-02-20T16:40:54.980Z,25.90
2018-02-20T16:43:21.436Z,34.33
2018-02-20T16:45:48.711Z,35.40
2018-02-20T16:48:15.177Z,45.63
2018-02-20T16:50:41.645Z,41.55
2018-02-20T16:53:08.111Z,43.80
2018-02-20T16:55:35.348Z,42.17
2018-02-20T16:58:01.797Z,38.75
2018-02-20T17:03:29.298Z,28.92
2018-02-20T17:05:55.763Z,44.10
2018-02-20T17:08:22.226Z,41.30
2018-02-20T17:10:48.977Z,39.60
2018-02-20T17:13:16.158Z,39.53
2018-02-20T17:15:42.614Z,36.95
2018-02-20T17:18:10.868Z,32.53
2018-02-20T17:20:37.306Z,43.90
2018-02-20T17:23:03.795Z,38.55
2018-02-20T17:25:30.287Z,35.03
2018-02-20T17:27:57.776Z,51.92
2018-02-20T17:30:24.239Z,36.53
2018-02-20T17:32:50.746Z,28.83
2018-02-20T17:35:17.508Z,28.75
2018-02-20T17:37:44.677Z,32.75
2018-02-20T17:40:11.898Z,22.50
2018-02-20T17:42:38.532Z,25.05
2018-02-20T17:45:05.097Z,27.30
2018-02-20T17:47:35.599Z,38.25
2018-02-20T17:50:02.363Z,33.45
2018-02-20T17:52:29.085Z,39.03
2018-02-20T17:54:56.372Z,30.83
2018-02-20T17:57:27.554Z,28.75
2018-02-20T17:59:53.992Z,21.25
2018-02-20T18:02:25.894Z,35.25
2018-02-20T18:04:55.186Z,28.80
2018-02-20T18:07:21.671Z,22.65
2018-02-20T18:09:48.182Z,21.20
2018-02-20T18:12:14.743Z,22.77
2018-02-20T18:14:41.424Z,34.40
2018-02-20T18:17:08.276Z,37.47
2018-02-20T18:19:34.753Z,26.80
2018-02-20T18:22:01.292Z,37.78
2018-02-20T18:24:28.537Z,25.52
2018-02-20T18:26:55.845Z,25.02
2018-02-20T18:29:27.048Z,22.08
2018-02-20T18:31:54.523Z,34.20
2018-02-20T18:34:20.941Z,25.95
2018-02-20T18:36:48.114Z,22.15
2018-02-20T18:39:14.589Z,18.33
2018-02-20T18:44:40.926Z,35.15
2018-02-20T18:47:07.394Z,38.33
2018-02-20T18:49:34.593Z,30.10
2018-02-20T18:52:01.050Z,34.35
2018-02-20T18:54:27.513Z,27.75
2018-02-20T18:56:54.718Z,38.13
2018-02-20T18:59:22.169Z,35.63
2018-02-20T19:01:48.622Z,36.70
2018-02-20T19:04:16.069Z,33.17
2018-02-20T19:06:46.424Z,25.65
2018-02-20T19:09:12.842Z,23.27
2018-02-20T19:11:39.347Z,28.52
2018-02-20T19:14:06.798Z,22.00
2018-02-20T19:16:33.232Z,39.50
2018-02-20T19:18:59.761Z,34.28
2018-02-20T19:21:26.292Z,22.48
2018-02-20T19:23:52.768Z,19.05
2018-02-20T19:26:19.223Z,31.65
2018-02-20T19:28:45.671Z,24.05
2018-02-20T19:31:12.133Z,22.45
2018-02-20T19:33:38.565Z,23.42
2018-02-20T19:36:05.017Z,35.10
2018-02-20T19:38:31.466Z,29.05
2018-02-20T19:40:57.908Z,33.85
2018-02-20T19:43:24.354Z,32.33
2018-02-20T19:45:50.797Z,21.75
2018-02-20T19:48:17.366Z,31.67
2018-02-20T19:50:44.525Z,41.95
2018-02-20T19:53:11.029Z,39.28
2018-02-20T19:55:37.479Z,32.20
2018-02-20T19:58:04.675Z,32.28
2018-02-20T20:00:31.114Z,21.87
2018-02-20T20:02:57.544Z,23.48
2018-02-20T20:05:23.961Z,35.70
2018-02-20T20:07:50.405Z,30.55
2018-02-20T20:10:16.861Z,42.00
2018-02-20T20:12:43.386Z,36.72
2018-02-20T20:15:10.502Z,43.87
2018-02-20T20:17:37.680Z,32.45
2018-02-20T20:20:04.136Z,34.75
2018-02-20T20:22:30.576Z,41.95
2018-02-20T20:24:57.045Z,27.92
2018-02-20T20:27:24.244Z,29.12
2018-02-20T20:29:50.686Z,33.05
2018-02-20T20:32:17.119Z,26.65
2018-02-20T20:34:43.547Z,32.47
2018-02-20T20:37:10.102Z,51.92
2018-02-20T20:39:36.520Z,39.67
2018-02-20T20:42:02.984Z,42.08
2018-02-20T20:44:29.416Z,27.73
2018-02-20T20:46:55.830Z,34.75
2018-02-20T20:49:22.304Z,45.03
2018-02-20T20:51:49.456Z,35.38
2018-02-20T20:54:15.878Z,35.45
2018-02-20T20:56:42.617Z,34.40
2018-02-20T20:59:09.882Z,38.50
2018-02-20T21:01:36.717Z,32.53
2018-02-20T21:04:03.176Z,37.45
2018-02-20T21:06:30.358Z,38.53
2018-02-20T21:08:56.798Z,35.35
2018-02-20T21:11:23.211Z,36.97
2018-02-20T21:13:49.649Z,28.75
2018-02-20T21:16:16.222Z,39.03
2018-02-20T21:18:43.670Z,40.85
2018-02-20T21:21:10.098Z,27.13
2018-02-20T21:23:36.576Z,41.72
2018-02-20T21:26:03.744Z,32.90
2018-02-20T21:28:30.200Z,26.87
2018-02-20T21:30:56.601Z,42.53
2018-02-20T21:33:23.769Z,26.55
2018-02-20T21:35:50.228Z,39.83
2018-02-20T21:38:16.671Z,44.65
2018-02-20T21:40:43.092Z,32.58
2018-02-20T21:43:09.552Z,28.20
2018-02-20T21:45:35.956Z,32.95
2018-02-20T21:48:02.387Z,30.60
2018-02-20T21:50:28.810Z,38.55
2018-02-20T21:52:55.257Z,44.63
2018-02-20T21:55:21.672Z,37.45
2018-02-20T21:57:48.850Z,49.70
2018-02-20T22:00:15.569Z,35.60
2018-02-20T22:02:42.878Z,37.42
2018-02-20T22:05:09.297Z,40.97
2018-02-20T22:07:35.745Z,50.78
2018-02-20T22:10:03.255Z,35.58
2018-02-20T22:12:30.445Z,31.12
2018-02-20T22:14:56.883Z,46.33
2018-02-20T22:17:23.361Z,31.30
2018-02-20T22:19:49.810Z,34.38
2018-02-20T22:22:16.257Z,34.33
2018-02-20T22:24:42.769Z,44.47
2018-02-20T22:27:09.232Z,40.15
2018-02-20T22:29:36.642Z,43.33
2018-02-20T22:32:03.077Z,45.63
2018-02-20T22:34:29.538Z,32.70
2018-02-20T22:36:55.966Z,42.10
2018-02-20T22:39:22.444Z,41.25
2018-02-20T22:41:48.893Z,43.78
2018-02-20T22:44:15.340Z,31.12
2018-02-20T22:46:41.775Z,34.45
2018-02-20T22:49:08.219Z,45.80
2018-02-20T22:51:34.636Z,31.62
2018-02-20T22:54:01.054Z,37.97
2018-02-20T22:56:27.469Z,42.10
2018-02-20T22:58:53.909Z,39.63
2018-02-20T23:01:24.149Z,29.35
2018-02-20T23:03:50.603Z,40.67
2018-02-20T23:06:17.035Z,27.35
2018-02-20T23:08:43.466Z,49.15
2018-02-20T23:11:11.341Z,29.73
2018-02-20T23:13:38.526Z,22.65
2018-02-20T23:16:05.002Z,25.37
2018-02-20T23:18:31.508Z,32.50
2018-02-20T23:20:57.945Z,36.00
2018-02-20T23:23:24.367Z,24.60
2018-02-20T23:25:50.786Z,28.20
2018-02-20T23:28:17.356Z,30.52
2018-02-20T23:30:43.973Z,32.08
2018-02-20T23:33:10.443Z,40.70
2018-02-20T23:35:36.849Z,30.17
2018-02-20T23:38:03.286Z,35.65
2018-02-20T23:40:29.707Z,45.47
2018-02-20T23:42:56.840Z,31.37
2018-02-20T23:45:24.045Z,25.23
2018-02-20T23:47:50.488Z,35.30
2018-02-20T23:50:16.930Z,26.15
2018-02-20T23:52:43.386Z,31.23
2018-02-20T23:55:09.830Z,40.15
2018-02-20T23:57:37.016Z,40.17
